Terminal Aerodrome Forecast
Issued by NWS Tulsa, OK

Home | Current Version | Previous Version | Text Only | Print | Product List | Glossary On
Versions: 1 2 3 4 5 6 7 8 9 10 11 12 13 14 15 16 17 18 19 20 21 22 23 24
000
FTUS44 KTSA 231805 AAA
TAFFSM
TAF AMD
KFSM 231805Z 2318/2418 09009KT P6SM VCSH OVC050
      TEMPO 2318/2322 5SM -TSRA BKN025CB
     FM240000 10005KT P6SM VCSH OVC050 WS020/19045KT PROB30
      2404/2408 5SM -TSRA OVC025CB
     FM241000 11008KT P6SM BKN015 WS020/19045KT=

USA.gov is the U.S. government's official web portal to all federal, state and local government web resources and services.